sensor_id;sensor_type;location;lat;lon;timestamp;P1;durP1;ratioP1;P2;durP2;ratioP2
28910;SDS011;16028;42.642;23.310;2022-10-26T00:02:21;16.05;;;4.25;;
28910;SDS011;16028;42.642;23.310;2022-10-26T00:04:47;17.30;;;4.72;;
28910;SDS011;16028;42.642;23.310;2022-10-26T00:07:14;19.58;;;4.45;;
28910;SDS011;16028;42.642;23.310;2022-10-26T00:09:42;10.77;;;3.95;;
28910;SDS011;16028;42.642;23.310;2022-10-26T00:12:09;11.05;;;4.38;;
28910;SDS011;16028;42.642;23.310;2022-10-26T00:14:36;6.80;;;4.22;;
28910;SDS011;16028;42.642;23.310;2022-10-26T00:17:03;11.98;;;4.50;;
28910;SDS011;16028;42.642;23.310;2022-10-26T00:19:31;10.93;;;4.53;;
28910;SDS011;16028;42.642;23.310;2022-10-26T00:21:59;10.02;;;4.05;;
28910;SDS011;16028;42.642;23.310;2022-10-26T00:24:26;6.38;;;4.05;;
28910;SDS011;16028;42.642;23.310;2022-10-26T00:26:54;11.05;;;4.20;;
28910;SDS011;16028;42.642;23.310;2022-10-26T00:29:20;11.93;;;3.90;;
28910;SDS011;16028;42.642;23.310;2022-10-26T00:31:47;14.57;;;4.10;;
28910;SDS011;16028;42.642;23.310;2022-10-26T00:34:14;11.27;;;4.00;;
28910;SDS011;16028;42.642;23.310;2022-10-26T00:36:41;7.82;;;3.97;;
28910;SDS011;16028;42.642;23.310;2022-10-26T00:39:09;11.40;;;3.78;;
28910;SDS011;16028;42.642;23.310;2022-10-26T00:41:38;6.30;;;3.75;;
28910;SDS011;16028;42.642;23.310;2022-10-26T00:47:13;9.75;;;3.60;;
28910;SDS011;16028;42.642;23.310;2022-10-26T00:49:43;8.20;;;3.53;;
28910;SDS011;16028;42.642;23.310;2022-10-26T00:52:12;12.00;;;3.53;;
28910;SDS011;16028;42.642;23.310;2022-10-26T00:54:41;6.82;;;3.92;;
28910;SDS011;16028;42.642;23.310;2022-10-26T00:57:09;11.48;;;4.18;;
28910;SDS011;16028;42.642;23.310;2022-10-26T00:59:37;8.65;;;3.50;;
28910;SDS011;16028;42.642;23.310;2022-10-26T01:02:04;7.30;;;3.67;;
28910;SDS011;16028;42.642;23.310;2022-10-26T01:04:33;13.02;;;3.67;;
28910;SDS011;16028;42.642;23.310;2022-10-26T01:06:59;8.65;;;3.25;;
28910;SDS011;16028;42.642;23.310;2022-10-26T01:09:28;9.10;;;3.40;;
28910;SDS011;16028;42.642;23.310;2022-10-26T01:11:56;11.55;;;3.55;;
28910;SDS011;16028;42.642;23.310;2022-10-26T01:14:23;5.22;;;3.30;;
28910;SDS011;16028;42.642;23.310;2022-10-26T01:16:56;14.40;;;3.05;;
28910;SDS011;16028;42.642;23.310;2022-10-26T01:19:47;5.40;;;3.20;;
28910;SDS011;16028;42.642;23.310;2022-10-26T01:22:31;4.40;;;2.45;;
28910;SDS011;16028;42.642;23.310;2022-10-26T01:25:07;9.98;;;2.97;;
28910;SDS011;16028;42.642;23.310;2022-10-26T01:27:43;4.75;;;2.53;;
28910;SDS011;16028;42.642;23.310;2022-10-26T01:30:19;8.90;;;3.05;;
28910;SDS011;16028;42.642;23.310;2022-10-26T01:33:02;7.57;;;2.67;;
28910;SDS011;16028;42.642;23.310;2022-10-26T01:35:37;8.95;;;2.97;;
28910;SDS011;16028;42.642;23.310;2022-10-26T01:38:13;6.97;;;2.65;;
28910;SDS011;16028;42.642;23.310;2022-10-26T01:40:46;8.07;;;2.92;;
28910;SDS011;16028;42.642;23.310;2022-10-26T01:43:19;5.53;;;2.97;;
28910;SDS011;16028;42.642;23.310;2022-10-26T01:45:49;9.02;;;3.00;;
28910;SDS011;16028;42.642;23.310;2022-10-26T01:48:18;6.85;;;2.90;;
28910;SDS011;16028;42.642;23.310;2022-10-26T01:50:52;9.68;;;3.05;;
28910;SDS011;16028;42.642;23.310;2022-10-26T01:53:19;4.80;;;3.20;;
28910;SDS011;16028;42.642;23.310;2022-10-26T01:55:47;7.38;;;3.28;;
28910;SDS011;16028;42.642;23.310;2022-10-26T02:04:42;8.20;;;2.97;;
28910;SDS011;16028;42.642;23.310;2022-10-26T02:07:20;9.52;;;2.90;;
28910;SDS011;16028;42.642;23.310;2022-10-26T02:09:56;7.45;;;2.58;;
28910;SDS011;16028;42.642;23.310;2022-10-26T02:12:29;11.13;;;2.90;;
28910;SDS011;16028;42.642;23.310;2022-10-26T02:15:03;11.70;;;3.03;;
28910;SDS011;16028;42.642;23.310;2022-10-26T02:17:36;6.47;;;3.22;;
28910;SDS011;16028;42.642;23.310;2022-10-26T02:20:12;7.63;;;2.97;;
28910;SDS011;16028;42.642;23.310;2022-10-26T02:22:44;5.45;;;2.72;;
28910;SDS011;16028;42.642;23.310;2022-10-26T02:25:15;11.77;;;3.20;;
28910;SDS011;16028;42.642;23.310;2022-10-26T02:27:46;13.65;;;3.28;;
28910;SDS011;16028;42.642;23.310;2022-10-26T02:30:17;9.45;;;3.13;;
28910;SDS011;16028;42.642;23.310;2022-10-26T02:32:46;8.80;;;3.25;;
28910;SDS011;16028;42.642;23.310;2022-10-26T02:35:16;8.55;;;3.30;;
28910;SDS011;16028;42.642;23.310;2022-10-26T02:37:46;7.50;;;3.10;;
28910;SDS011;16028;42.642;23.310;2022-10-26T02:40:15;6.25;;;2.65;;
28910;SDS011;16028;42.642;23.310;2022-10-26T02:42:46;10.45;;;3.08;;
28910;SDS011;16028;42.642;23.310;2022-10-26T02:45:15;8.40;;;3.53;;
28910;SDS011;16028;42.642;23.310;2022-10-26T02:47:47;7.00;;;3.22;;
28910;SDS011;16028;42.642;23.310;2022-10-26T02:50:14;8.38;;;3.17;;
28910;SDS011;16028;42.642;23.310;2022-10-26T02:52:44;5.78;;;2.95;;
28910;SDS011;16028;42.642;23.310;2022-10-26T02:55:18;12.45;;;3.47;;
28910;SDS011;16028;42.642;23.310;2022-10-26T02:57:49;7.93;;;3.10;;
28910;SDS011;16028;42.642;23.310;2022-10-26T03:00:20;12.45;;;3.38;;
28910;SDS011;16028;42.642;23.310;2022-10-26T03:02:51;9.48;;;3.80;;
28910;SDS011;16028;42.642;23.310;2022-10-26T03:05:22;4.40;;;3.00;;
28910;SDS011;16028;42.642;23.310;2022-10-26T03:07:51;6.78;;;2.80;;
28910;SDS011;16028;42.642;23.310;2022-10-26T03:10:17;7.30;;;2.80;;
28910;SDS011;16028;42.642;23.310;2022-10-26T03:12:44;13.15;;;3.08;;
28910;SDS011;16028;42.642;23.310;2022-10-26T03:15:11;7.03;;;3.63;;
28910;SDS011;16028;42.642;23.310;2022-10-26T03:17:38;7.32;;;3.30;;
28910;SDS011;16028;42.642;23.310;2022-10-26T03:20:07;6.32;;;3.63;;
28910;SDS011;16028;42.642;23.310;2022-10-26T03:22:34;14.07;;;4.10;;
28910;SDS011;16028;42.642;23.310;2022-10-26T03:25:01;8.30;;;3.85;;
28910;SDS011;16028;42.642;23.310;2022-10-26T03:27:28;12.70;;;4.00;;
28910;SDS011;16028;42.642;23.310;2022-10-26T03:29:55;13.82;;;4.30;;
28910;SDS011;16028;42.642;23.310;2022-10-26T03:32:21;11.57;;;4.18;;
28910;SDS011;16028;42.642;23.310;2022-10-26T03:34:48;12.73;;;5.25;;
28910;SDS011;16028;42.642;23.310;2022-10-26T03:37:16;7.93;;;5.15;;
28910;SDS011;16028;42.642;23.310;2022-10-26T03:39:43;9.10;;;4.95;;
28910;SDS011;16028;42.642;23.310;2022-10-26T03:42:10;10.48;;;4.68;;
28910;SDS011;16028;42.642;23.310;2022-10-26T03:44:36;10.95;;;4.78;;
28910;SDS011;16028;42.642;23.310;2022-10-26T03:47:03;15.30;;;4.75;;
28910;SDS011;16028;42.642;23.310;2022-10-26T03:49:30;12.05;;;5.03;;
28910;SDS011;16028;42.642;23.310;2022-10-26T03:51:57;15.20;;;4.88;;
28910;SDS011;16028;42.642;23.310;2022-10-26T03:54:25;12.55;;;4.90;;
28910;SDS011;16028;42.642;23.310;2022-10-26T03:56:52;12.63;;;5.35;;
28910;SDS011;16028;42.642;23.310;2022-10-26T03:59:18;11.50;;;5.85;;
28910;SDS011;16028;42.642;23.310;2022-10-26T04:01:45;10.90;;;5.80;;
28910;SDS011;16028;42.642;23.310;2022-10-26T04:04:12;10.70;;;5.82;;
28910;SDS011;16028;42.642;23.310;2022-10-26T04:06:38;14.85;;;5.25;;
28910;SDS011;16028;42.642;23.310;2022-10-26T04:09:05;17.75;;;4.70;;
28910;SDS011;16028;42.642;23.310;2022-10-26T04:11:33;7.63;;;5.13;;
28910;SDS011;16028;42.642;23.310;2022-10-26T04:14:00;16.52;;;4.95;;
28910;SDS011;16028;42.642;23.310;2022-10-26T04:16:27;17.35;;;5.85;;
28910;SDS011;16028;42.642;23.310;2022-10-26T04:18:54;9.60;;;5.05;;
28910;SDS011;16028;42.642;23.310;2022-10-26T04:21:20;10.48;;;4.82;;
28910;SDS011;16028;42.642;23.310;2022-10-26T04:23:47;9.20;;;4.13;;
28910;SDS011;16028;42.642;23.310;2022-10-26T04:26:14;13.65;;;4.65;;
28910;SDS011;16028;42.642;23.310;2022-10-26T04:28:42;12.73;;;4.15;;
28910;SDS011;16028;42.642;23.310;2022-10-26T04:31:09;11.15;;;3.72;;
28910;SDS011;16028;42.642;23.310;2022-10-26T04:33:35;14.80;;;5.75;;
28910;SDS011;16028;42.642;23.310;2022-10-26T04:36:02;12.32;;;5.55;;
28910;SDS011;16028;42.642;23.310;2022-10-26T04:38:29;14.50;;;5.45;;
28910;SDS011;16028;42.642;23.310;2022-10-26T04:40:56;12.15;;;5.45;;
28910;SDS011;16028;42.642;23.310;2022-10-26T04:43:23;12.93;;;5.18;;
28910;SDS011;16028;42.642;23.310;2022-10-26T04:45:54;12.88;;;5.07;;
28910;SDS011;16028;42.642;23.310;2022-10-26T04:48:24;13.90;;;5.47;;
28910;SDS011;16028;42.642;23.310;2022-10-26T04:50:51;9.30;;;4.80;;
28910;SDS011;16028;42.642;23.310;2022-10-26T04:53:17;10.32;;;5.32;;
28910;SDS011;16028;42.642;23.310;2022-10-26T04:55:44;14.40;;;4.70;;
28910;SDS011;16028;42.642;23.310;2022-10-26T04:58:11;8.73;;;4.63;;
28910;SDS011;16028;42.642;23.310;2022-10-26T05:00:37;8.32;;;4.05;;
28910;SDS011;16028;42.642;23.310;2022-10-26T05:03:06;7.97;;;4.28;;
28910;SDS011;16028;42.642;23.310;2022-10-26T05:05:34;8.63;;;4.22;;
28910;SDS011;16028;42.642;23.310;2022-10-26T05:08:01;7.80;;;4.40;;
28910;SDS011;16028;42.642;23.310;2022-10-26T05:10:29;11.43;;;4.38;;
28910;SDS011;16028;42.642;23.310;2022-10-26T05:12:56;9.68;;;4.35;;
28910;SDS011;16028;42.642;23.310;2022-10-26T05:15:24;15.13;;;4.90;;
28910;SDS011;16028;42.642;23.310;2022-10-26T05:17:55;26.05;;;5.43;;
28910;SDS011;16028;42.642;23.310;2022-10-26T05:20:24;12.55;;;5.45;;
28910;SDS011;16028;42.642;23.310;2022-10-26T05:22:54;10.57;;;5.80;;
28910;SDS011;16028;42.642;23.310;2022-10-26T05:25:21;16.00;;;5.88;;
28910;SDS011;16028;42.642;23.310;2022-10-26T05:27:47;20.40;;;7.95;;
28910;SDS011;16028;42.642;23.310;2022-10-26T05:30:14;10.23;;;6.22;;
28910;SDS011;16028;42.642;23.310;2022-10-26T05:32:41;8.30;;;5.43;;
28910;SDS011;16028;42.642;23.310;2022-10-26T05:35:08;13.52;;;5.97;;
28910;SDS011;16028;42.642;23.310;2022-10-26T05:37:36;17.73;;;6.28;;
28910;SDS011;16028;42.642;23.310;2022-10-26T05:40:03;13.30;;;6.22;;
28910;SDS011;16028;42.642;23.310;2022-10-26T05:42:31;12.38;;;6.07;;
28910;SDS011;16028;42.642;23.310;2022-10-26T05:44:57;17.90;;;6.07;;
28910;SDS011;16028;42.642;23.310;2022-10-26T05:47:24;11.02;;;6.22;;
28910;SDS011;16028;42.642;23.310;2022-10-26T05:49:51;13.95;;;6.22;;
28910;SDS011;16028;42.642;23.310;2022-10-26T05:52:18;21.58;;;6.90;;
28910;SDS011;16028;42.642;23.310;2022-10-26T05:54:46;12.90;;;6.78;;
28910;SDS011;16028;42.642;23.310;2022-10-26T05:57:13;23.75;;;6.90;;
28910;SDS011;16028;42.642;23.310;2022-10-26T05:59:40;21.23;;;7.18;;
28910;SDS011;16028;42.642;23.310;2022-10-26T06:02:08;15.32;;;6.50;;
28910;SDS011;16028;42.642;23.310;2022-10-26T06:04:44;17.25;;;7.38;;
28910;SDS011;16028;42.642;23.310;2022-10-26T06:07:13;13.80;;;6.93;;
28910;SDS011;16028;42.642;23.310;2022-10-26T06:09:41;15.82;;;6.50;;
28910;SDS011;16028;42.642;23.310;2022-10-26T06:12:11;13.85;;;6.30;;
28910;SDS011;16028;42.642;23.310;2022-10-26T06:14:39;19.50;;;6.15;;
28910;SDS011;16028;42.642;23.310;2022-10-26T06:17:10;10.52;;;5.68;;
28910;SDS011;16028;42.642;23.310;2022-10-26T06:19:49;15.10;;;6.53;;
28910;SDS011;16028;42.642;23.310;2022-10-26T06:22:36;14.07;;;5.40;;
28910;SDS011;16028;42.642;23.310;2022-10-26T06:25:15;9.70;;;5.28;;
28910;SDS011;16028;42.642;23.310;2022-10-26T06:27:53;9.68;;;5.45;;
28910;SDS011;16028;42.642;23.310;2022-10-26T06:30:26;13.48;;;5.25;;
28910;SDS011;16028;42.642;23.310;2022-10-26T06:32:53;13.15;;;6.47;;
28910;SDS011;16028;42.642;23.310;2022-10-26T06:35:25;12.43;;;5.95;;
28910;SDS011;16028;42.642;23.310;2022-10-26T06:38:01;12.20;;;6.95;;
28910;SDS011;16028;42.642;23.310;2022-10-26T06:40:34;12.40;;;5.70;;
28910;SDS011;16028;42.642;23.310;2022-10-26T06:43:06;14.35;;;5.75;;
28910;SDS011;16028;42.642;23.310;2022-10-26T06:45:39;14.70;;;5.50;;
28910;SDS011;16028;42.642;23.310;2022-10-26T06:48:09;8.95;;;5.03;;
28910;SDS011;16028;42.642;23.310;2022-10-26T06:50:42;11.93;;;4.97;;
28910;SDS011;16028;42.642;23.310;2022-10-26T06:53:16;9.55;;;4.53;;
28910;SDS011;16028;42.642;23.310;2022-10-26T06:55:47;13.35;;;4.80;;
28910;SDS011;16028;42.642;23.310;2022-10-26T06:58:17;9.13;;;4.70;;
28910;SDS011;16028;42.642;23.310;2022-10-26T07:00:47;13.13;;;5.35;;
28910;SDS011;16028;42.642;23.310;2022-10-26T07:03:15;13.85;;;5.35;;
28910;SDS011;16028;42.642;23.310;2022-10-26T07:05:42;12.07;;;5.15;;
28910;SDS011;16028;42.642;23.310;2022-10-26T07:08:10;11.77;;;4.72;;
28910;SDS011;16028;42.642;23.310;2022-10-26T07:10:37;12.52;;;5.63;;
28910;SDS011;16028;42.642;23.310;2022-10-26T07:13:04;11.10;;;5.72;;
28910;SDS011;16028;42.642;23.310;2022-10-26T07:15:32;18.08;;;5.65;;
28910;SDS011;16028;42.642;23.310;2022-10-26T07:18:00;14.27;;;6.85;;
28910;SDS011;16028;42.642;23.310;2022-10-26T07:20:30;21.88;;;6.68;;
28910;SDS011;16028;42.642;23.310;2022-10-26T07:22:57;15.40;;;6.35;;
28910;SDS011;16028;42.642;23.310;2022-10-26T07:25:24;8.70;;;5.60;;
28910;SDS011;16028;42.642;23.310;2022-10-26T07:27:55;9.88;;;5.72;;
28910;SDS011;16028;42.642;23.310;2022-10-26T07:30:22;8.10;;;5.40;;
28910;SDS011;16028;42.642;23.310;2022-10-26T07:32:54;14.45;;;5.25;;
28910;SDS011;16028;42.642;23.310;2022-10-26T07:35:24;15.85;;;5.10;;
28910;SDS011;16028;42.642;23.310;2022-10-26T07:37:54;10.35;;;5.72;;
28910;SDS011;16028;42.642;23.310;2022-10-26T07:40:22;12.93;;;6.47;;
28910;SDS011;16028;42.642;23.310;2022-10-26T07:42:49;17.83;;;8.50;;
28910;SDS011;16028;42.642;23.310;2022-10-26T07:45:15;10.30;;;5.82;;
28910;SDS011;16028;42.642;23.310;2022-10-26T07:47:43;11.93;;;5.97;;
28910;SDS011;16028;42.642;23.310;2022-10-26T07:50:11;9.27;;;5.80;;
28910;SDS011;16028;42.642;23.310;2022-10-26T07:52:38;16.35;;;5.93;;
28910;SDS011;16028;42.642;23.310;2022-10-26T07:55:06;15.68;;;5.82;;
28910;SDS011;16028;42.642;23.310;2022-10-26T07:57:34;15.63;;;6.28;;
28910;SDS011;16028;42.642;23.310;2022-10-26T08:00:00;14.90;;;5.60;;
28910;SDS011;16028;42.642;23.310;2022-10-26T08:02:28;12.00;;;5.60;;
28910;SDS011;16028;42.642;23.310;2022-10-26T08:04:55;15.68;;;5.53;;
28910;SDS011;16028;42.642;23.310;2022-10-26T08:07:23;11.85;;;5.68;;
28910;SDS011;16028;42.642;23.310;2022-10-26T08:09:50;12.23;;;5.38;;
28910;SDS011;16028;42.642;23.310;2022-10-26T08:12:17;13.05;;;5.38;;
28910;SDS011;16028;42.642;23.310;2022-10-26T08:14:44;13.68;;;5.38;;
28910;SDS011;16028;42.642;23.310;2022-10-26T08:17:11;11.15;;;4.28;;
28910;SDS011;16028;42.642;23.310;2022-10-26T08:19:38;12.45;;;4.93;;
28910;SDS011;16028;42.642;23.310;2022-10-26T08:22:04;15.65;;;5.40;;
28910;SDS011;16028;42.642;23.310;2022-10-26T08:24:36;12.02;;;6.13;;
28910;SDS011;16028;42.642;23.310;2022-10-26T08:27:02;13.13;;;5.18;;
28910;SDS011;16028;42.642;23.310;2022-10-26T08:29:29;8.20;;;5.05;;
28910;SDS011;16028;42.642;23.310;2022-10-26T08:31:56;9.07;;;4.97;;
28910;SDS011;16028;42.642;23.310;2022-10-26T08:34:23;15.40;;;5.75;;
28910;SDS011;16028;42.642;23.310;2022-10-26T08:36:49;15.57;;;5.38;;
28910;SDS011;16028;42.642;23.310;2022-10-26T08:39:16;11.07;;;5.07;;
28910;SDS011;16028;42.642;23.310;2022-10-26T08:41:45;11.60;;;5.70;;
28910;SDS011;16028;42.642;23.310;2022-10-26T08:44:20;10.45;;;5.07;;
28910;SDS011;16028;42.642;23.310;2022-10-26T08:46:52;9.73;;;5.40;;
28910;SDS011;16028;42.642;23.310;2022-10-26T08:49:24;7.82;;;5.10;;
28910;SDS011;16028;42.642;23.310;2022-10-26T08:51:56;11.45;;;5.28;;
28910;SDS011;16028;42.642;23.310;2022-10-26T08:54:29;10.60;;;4.75;;
28910;SDS011;16028;42.642;23.310;2022-10-26T08:57:10;12.27;;;4.68;;
28910;SDS011;16028;42.642;23.310;2022-10-26T08:59:43;9.95;;;4.55;;
28910;SDS011;16028;42.642;23.310;2022-10-26T09:02:14;9.68;;;4.55;;
28910;SDS011;16028;42.642;23.310;2022-10-26T09:04:42;13.65;;;4.95;;
28910;SDS011;16028;42.642;23.310;2022-10-26T09:07:11;10.85;;;4.65;;
28910;SDS011;16028;42.642;23.310;2022-10-26T09:09:50;7.45;;;4.03;;
28910;SDS011;16028;42.642;23.310;2022-10-26T09:12:25;7.85;;;4.70;;
28910;SDS011;16028;42.642;23.310;2022-10-26T09:15:02;8.93;;;3.83;;
28910;SDS011;16028;42.642;23.310;2022-10-26T09:17:39;10.20;;;4.25;;
28910;SDS011;16028;42.642;23.310;2022-10-26T09:20:15;7.38;;;4.22;;
28910;SDS011;16028;42.642;23.310;2022-10-26T09:22:55;15.45;;;4.43;;
28910;SDS011;16028;42.642;23.310;2022-10-26T09:25:28;14.75;;;4.20;;
28910;SDS011;16028;42.642;23.310;2022-10-26T09:28:02;11.27;;;3.77;;
28910;SDS011;16028;42.642;23.310;2022-10-26T09:30:30;6.75;;;3.28;;
28910;SDS011;16028;42.642;23.310;2022-10-26T09:33:00;7.05;;;3.13;;
28910;SDS011;16028;42.642;23.310;2022-10-26T09:35:41;8.20;;;3.70;;
28910;SDS011;16028;42.642;23.310;2022-10-26T09:38:12;10.45;;;4.35;;
28910;SDS011;16028;42.642;23.310;2022-10-26T09:40:45;5.32;;;3.25;;
28910;SDS011;16028;42.642;23.310;2022-10-26T09:43:22;6.80;;;2.53;;
28910;SDS011;16028;42.642;23.310;2022-10-26T09:45:52;6.15;;;3.00;;
28910;SDS011;16028;42.642;23.310;2022-10-26T09:48:20;6.20;;;3.08;;
28910;SDS011;16028;42.642;23.310;2022-10-26T09:50:53;4.93;;;2.58;;
28910;SDS011;16028;42.642;23.310;2022-10-26T09:53:22;5.78;;;2.60;;
28910;SDS011;16028;42.642;23.310;2022-10-26T09:55:49;6.88;;;2.72;;
28910;SDS011;16028;42.642;23.310;2022-10-26T09:58:27;6.22;;;2.97;;
28910;SDS011;16028;42.642;23.310;2022-10-26T10:00:56;12.70;;;2.85;;
28910;SDS011;16028;42.642;23.310;2022-10-26T10:03:24;2.88;;;2.30;;
28910;SDS011;16028;42.642;23.310;2022-10-26T10:05:53;8.82;;;2.80;;
28910;SDS011;16028;42.642;23.310;2022-10-26T10:08:40;7.75;;;2.90;;
28910;SDS011;16028;42.642;23.310;2022-10-26T10:11:08;12.77;;;3.17;;
28910;SDS011;16028;42.642;23.310;2022-10-26T10:13:38;5.70;;;2.67;;
28910;SDS011;16028;42.642;23.310;2022-10-26T10:16:09;7.30;;;2.90;;
28910;SDS011;16028;42.642;23.310;2022-10-26T10:18:38;11.68;;;2.88;;
28910;SDS011;16028;42.642;23.310;2022-10-26T10:21:06;5.53;;;2.72;;
28910;SDS011;16028;42.642;23.310;2022-10-26T10:23:35;9.13;;;2.75;;
28910;SDS011;16028;42.642;23.310;2022-10-26T10:26:11;8.15;;;2.75;;
28910;SDS011;16028;42.642;23.310;2022-10-26T10:28:40;3.60;;;2.70;;
28910;SDS011;16028;42.642;23.310;2022-10-26T10:31:17;7.57;;;3.45;;
28910;SDS011;16028;42.642;23.310;2022-10-26T10:33:45;4.97;;;2.60;;
28910;SDS011;16028;42.642;23.310;2022-10-26T10:36:14;9.13;;;2.80;;
28910;SDS011;16028;42.642;23.310;2022-10-26T10:38:44;7.88;;;2.50;;
28910;SDS011;16028;42.642;23.310;2022-10-26T10:41:14;8.27;;;4.45;;
28910;SDS011;16028;42.642;23.310;2022-10-26T10:43:48;10.27;;;3.40;;
28910;SDS011;16028;42.642;23.310;2022-10-26T10:46:20;4.55;;;3.10;;
28910;SDS011;16028;42.642;23.310;2022-10-26T10:48:50;5.72;;;3.05;;
28910;SDS011;16028;42.642;23.310;2022-10-26T10:51:20;7.35;;;3.15;;
28910;SDS011;16028;42.642;23.310;2022-10-26T10:53:49;10.68;;;3.80;;
28910;SDS011;16028;42.642;23.310;2022-10-26T10:56:28;6.43;;;3.10;;
28910;SDS011;16028;42.642;23.310;2022-10-26T11:05:18;5.93;;;3.88;;
28910;SDS011;16028;42.642;23.310;2022-10-26T11:07:49;5.65;;;2.88;;
28910;SDS011;16028;42.642;23.310;2022-10-26T11:10:20;9.30;;;3.90;;
28910;SDS011;16028;42.642;23.310;2022-10-26T11:12:51;8.02;;;3.38;;
28910;SDS011;16028;42.642;23.310;2022-10-26T11:15:23;6.85;;;3.38;;
28910;SDS011;16028;42.642;23.310;2022-10-26T11:17:55;9.88;;;4.20;;
28910;SDS011;16028;42.642;23.310;2022-10-26T11:20:30;6.18;;;2.80;;
28910;SDS011;16028;42.642;23.310;2022-10-26T11:23:02;9.88;;;3.50;;
28910;SDS011;16028;42.642;23.310;2022-10-26T11:25:35;4.82;;;2.90;;
28910;SDS011;16028;42.642;23.310;2022-10-26T11:28:11;5.00;;;2.70;;
28910;SDS011;16028;42.642;23.310;2022-10-26T11:30:42;8.80;;;2.42;;
28910;SDS011;16028;42.642;23.310;2022-10-26T11:33:14;5.43;;;2.50;;
28910;SDS011;16028;42.642;23.310;2022-10-26T11:35:48;7.68;;;2.30;;
28910;SDS011;16028;42.642;23.310;2022-10-26T11:38:22;6.90;;;2.53;;
28910;SDS011;16028;42.642;23.310;2022-10-26T11:40:56;5.03;;;2.22;;
28910;SDS011;16028;42.642;23.310;2022-10-26T11:43:29;7.78;;;2.30;;
28910;SDS011;16028;42.642;23.310;2022-10-26T11:46:02;6.47;;;2.00;;
28910;SDS011;16028;42.642;23.310;2022-10-26T11:48:35;3.00;;;2.00;;
28910;SDS011;16028;42.642;23.310;2022-10-26T11:51:10;7.10;;;2.13;;
28910;SDS011;16028;42.642;23.310;2022-10-26T11:53:44;5.82;;;1.58;;
28910;SDS011;16028;42.642;23.310;2022-10-26T11:56:14;5.82;;;1.75;;
28910;SDS011;16028;42.642;23.310;2022-10-26T11:58:50;3.80;;;1.73;;
28910;SDS011;16028;42.642;23.310;2022-10-26T12:01:18;3.67;;;1.88;;
28910;SDS011;16028;42.642;23.310;2022-10-26T12:03:46;2.95;;;2.03;;
28910;SDS011;16028;42.642;23.310;2022-10-26T12:06:19;2.47;;;1.58;;
28910;SDS011;16028;42.642;23.310;2022-10-26T12:08:52;4.22;;;1.50;;
28910;SDS011;16028;42.642;23.310;2022-10-26T12:11:25;3.20;;;2.00;;
28910;SDS011;16028;42.642;23.310;2022-10-26T12:14:02;7.97;;;1.60;;
28910;SDS011;16028;42.642;23.310;2022-10-26T12:16:42;3.60;;;1.98;;
28910;SDS011;16028;42.642;23.310;2022-10-26T12:19:17;3.47;;;1.27;;
28910;SDS011;16028;42.642;23.310;2022-10-26T12:21:49;5.15;;;1.15;;
28910;SDS011;16028;42.642;23.310;2022-10-26T12:24:24;4.18;;;1.35;;
28910;SDS011;16028;42.642;23.310;2022-10-26T12:26:59;4.97;;;1.60;;
28910;SDS011;16028;42.642;23.310;2022-10-26T12:35:35;6.05;;;1.65;;
28910;SDS011;16028;42.642;23.310;2022-10-26T12:41:12;4.65;;;1.70;;
28910;SDS011;16028;42.642;23.310;2022-10-26T12:43:44;3.85;;;1.38;;
28910;SDS011;16028;42.642;23.310;2022-10-26T12:55:45;4.57;;;1.55;;
28910;SDS011;16028;42.642;23.310;2022-10-26T12:58:25;7.57;;;1.90;;
28910;SDS011;16028;42.642;23.310;2022-10-26T13:04:24;3.60;;;1.23;;
28910;SDS011;16028;42.642;23.310;2022-10-26T13:10:00;3.30;;;1.30;;
28910;SDS011;16028;42.642;23.310;2022-10-26T13:12:34;2.85;;;1.25;;
28910;SDS011;16028;42.642;23.310;2022-10-26T13:15:17;3.72;;;1.05;;
28910;SDS011;16028;42.642;23.310;2022-10-26T13:17:51;10.07;;;1.60;;
28910;SDS011;16028;42.642;23.310;2022-10-26T13:20:22;3.40;;;1.40;;
28910;SDS011;16028;42.642;23.310;2022-10-26T13:22:48;2.28;;;1.08;;
28910;SDS011;16028;42.642;23.310;2022-10-26T13:25:17;8.07;;;1.30;;
28910;SDS011;16028;42.642;23.310;2022-10-26T13:28:02;4.55;;;0.98;;
28910;SDS011;16028;42.642;23.310;2022-10-26T13:30:40;2.03;;;1.33;;
28910;SDS011;16028;42.642;23.310;2022-10-26T13:33:19;3.35;;;1.20;;
28910;SDS011;16028;42.642;23.310;2022-10-26T13:35:50;2.45;;;1.10;;
28910;SDS011;16028;42.642;23.310;2022-10-26T13:38:21;1.90;;;0.90;;
28910;SDS011;16028;42.642;23.310;2022-10-26T13:40:51;4.43;;;1.38;;
28910;SDS011;16028;42.642;23.310;2022-10-26T13:43:29;3.20;;;1.20;;
28910;SDS011;16028;42.642;23.310;2022-10-26T13:45:57;4.28;;;1.58;;
28910;SDS011;16028;42.642;23.310;2022-10-26T13:48:28;5.00;;;3.42;;
28910;SDS011;16028;42.642;23.310;2022-10-26T13:51:02;6.03;;;1.05;;
28910;SDS011;16028;42.642;23.310;2022-10-26T13:53:39;3.63;;;1.20;;
28910;SDS011;16028;42.642;23.310;2022-10-26T13:56:13;1.90;;;1.20;;
28910;SDS011;16028;42.642;23.310;2022-10-26T13:58:46;7.03;;;1.52;;
28910;SDS011;16028;42.642;23.310;2022-10-26T14:01:18;4.43;;;1.30;;
28910;SDS011;16028;42.642;23.310;2022-10-26T14:03:47;2.70;;;1.60;;
28910;SDS011;16028;42.642;23.310;2022-10-26T14:06:19;2.08;;;1.30;;
28910;SDS011;16028;42.642;23.310;2022-10-26T14:08:51;3.38;;;1.30;;
28910;SDS011;16028;42.642;23.310;2022-10-26T14:11:21;2.35;;;1.40;;
28910;SDS011;16028;42.642;23.310;2022-10-26T14:13:53;1.95;;;1.52;;
28910;SDS011;16028;42.642;23.310;2022-10-26T14:16:21;7.50;;;1.88;;
28910;SDS011;16028;42.642;23.310;2022-10-26T14:18:52;4.25;;;1.70;;
28910;SDS011;16028;42.642;23.310;2022-10-26T14:21:20;6.45;;;1.83;;
28910;SDS011;16028;42.642;23.310;2022-10-26T14:23:48;3.92;;;1.63;;
28910;SDS011;16028;42.642;23.310;2022-10-26T14:26:20;6.40;;;1.50;;
28910;SDS011;16028;42.642;23.310;2022-10-26T14:28:49;1.98;;;1.52;;
28910;SDS011;16028;42.642;23.310;2022-10-26T14:31:25;4.90;;;1.80;;
28910;SDS011;16028;42.642;23.310;2022-10-26T14:33:54;2.45;;;1.40;;
28910;SDS011;16028;42.642;23.310;2022-10-26T14:36:22;3.92;;;1.60;;
28910;SDS011;16028;42.642;23.310;2022-10-26T14:38:57;2.40;;;1.52;;
28910;SDS011;16028;42.642;23.310;2022-10-26T14:41:27;6.03;;;3.70;;
28910;SDS011;16028;42.642;23.310;2022-10-26T14:43:55;9.40;;;3.83;;
28910;SDS011;16028;42.642;23.310;2022-10-26T14:46:26;6.82;;;1.85;;
28910;SDS011;16028;42.642;23.310;2022-10-26T14:48:59;3.58;;;1.83;;
28910;SDS011;16028;42.642;23.310;2022-10-26T14:51:27;2.95;;;1.70;;
28910;SDS011;16028;42.642;23.310;2022-10-26T14:53:55;6.20;;;1.80;;
28910;SDS011;16028;42.642;23.310;2022-10-26T14:56:25;6.78;;;2.00;;
28910;SDS011;16028;42.642;23.310;2022-10-26T14:58:54;4.07;;;2.10;;
28910;SDS011;16028;42.642;23.310;2022-10-26T15:01:27;3.10;;;1.58;;
28910;SDS011;16028;42.642;23.310;2022-10-26T15:03:57;3.42;;;1.58;;
28910;SDS011;16028;42.642;23.310;2022-10-26T15:06:29;4.50;;;1.65;;
28910;SDS011;16028;42.642;23.310;2022-10-26T15:09:02;7.78;;;2.08;;
28910;SDS011;16028;42.642;23.310;2022-10-26T15:11:31;4.53;;;2.05;;
28910;SDS011;16028;42.642;23.310;2022-10-26T15:13:59;5.05;;;2.05;;
28910;SDS011;16028;42.642;23.310;2022-10-26T15:16:28;9.07;;;2.42;;
28910;SDS011;16028;42.642;23.310;2022-10-26T15:18:58;6.05;;;2.30;;
28910;SDS011;16028;42.642;23.310;2022-10-26T15:21:33;7.30;;;2.47;;
28910;SDS011;16028;42.642;23.310;2022-10-26T15:24:10;3.40;;;2.03;;
28910;SDS011;16028;42.642;23.310;2022-10-26T15:26:46;3.88;;;1.95;;
28910;SDS011;16028;42.642;23.310;2022-10-26T15:32:18;4.53;;;2.60;;